Time;durP1;ratioP1;P1;durP2;ratioP2;P2;SDS_P1;SDS_P2;PMS_P1;PMS_P2;Temp;Humidity;BMP_temperature;BMP_pressure;BME280_temperature;BME280_humidity;BME280_pressure;Samples;Min_cycle;Max_cycle;Signal;HPM_P1;HPM_P2
2023/09/08 00:01:08;;;;;;;5.03;1.43;;;14.30;99.90;;;;;;5011988;28;20178;-71
2023/09/08 00:03:36;;;;;;;3.10;1.80;;;14.30;99.90;;;;;;5011612;28;20217;-70
2023/09/08 00:06:04;;;;;;;3.37;1.90;;;14.30;99.90;;;;;;5011383;28;20166;-70
2023/09/08 00:08:31;;;;;;;3.57;1.43;;;14.40;99.90;;;;;;4994093;28;20243;-71
2023/09/08 00:10:58;;;;;;;6.63;1.43;;;14.30;99.90;;;;;;5011429;28;20184;-69
2023/09/08 00:13:26;;;;;;;2.43;1.00;;;14.30;99.90;;;;;;5010711;28;20599;-69
2023/09/08 00:15:53;;;;;;;0.77;0.70;;;14.10;99.90;;;;;;5011706;28;20737;-70
2023/09/08 00:18:20;;;;;;;2.03;0.73;;;14.10;99.90;;;;;;5011721;28;20278;-70
2023/09/08 00:20:48;;;;;;;1.27;0.60;;;14.10;99.90;;;;;;5011352;28;20244;-70
2023/09/08 00:23:15;;;;;;;0.60;0.60;;;14.10;99.90;;;;;;5011510;28;20208;-73
2023/09/08 00:25:42;;;;;;;1.57;0.70;;;13.90;99.90;;;;;;5012193;28;20657;-70
2023/09/08 00:28:09;;;;;;;1.13;0.50;;;14.00;99.90;;;;;;5011371;28;20173;-71
2023/09/08 00:30:37;;;;;;;1.13;0.60;;;14.00;99.90;;;;;;5011828;28;20184;-70
2023/09/08 00:33:08;;;;;;;2.43;1.00;;;13.90;99.90;;;;;;5011538;28;20197;-70
2023/09/08 00:35:36;;;;;;;2.53;0.57;;;13.90;99.90;;;;;;5011206;28;20279;-70
2023/09/08 00:38:03;;;;;;;2.43;0.80;;;13.80;99.90;;;;;;5011475;28;20173;-70
2023/09/08 00:40:32;;;;;;;1.37;0.83;;;13.80;99.90;;;;;;5011609;28;20255;-70
2023/09/08 00:42:59;;;;;;;2.93;0.80;;;13.90;99.90;;;;;;5010998;28;20222;-69
2023/09/08 00:45:30;;;;;;;1.07;0.60;;;14.00;99.90;;;;;;4993942;28;20300;-70
2023/09/08 00:47:57;;;;;;;3.30;0.90;;;14.10;99.90;;;;;;5011555;28;20213;-69
2023/09/08 00:50:24;;;;;;;6.07;0.80;;;14.40;99.90;;;;;;5012114;28;20189;-70
2023/09/08 00:52:52;;;;;;;1.80;0.80;;;14.90;99.90;;;;;;5017831;28;20193;-70
2023/09/08 00:55:19;;;;;;;3.23;1.03;;;15.20;99.90;;;;;;5017643;28;20210;-71
2023/09/08 00:57:46;;;;;;;3.13;1.10;;;15.50;99.90;;;;;;5021114;28;20271;-71
2023/09/08 01:00:14;;;;;;;4.03;1.10;;;15.30;99.90;;;;;;5017924;28;20662;-71
2023/09/08 01:02:44;;;;;;;3.70;1.07;;;15.30;99.90;;;;;;5017439;28;20216;-71
2023/09/08 01:05:14;;;;;;;2.30;1.30;;;15.20;99.90;;;;;;5016807;28;20733;-70
2023/09/08 01:07:42;;;;;;;6.43;3.17;;;15.10;99.90;;;;;;4999994;28;20201;-70
2023/09/08 01:10:10;;;;;;;7.93;4.13;;;14.90;99.90;;;;;;5017426;28;20702;-70
2023/09/08 01:12:37;;;;;;;5.50;3.20;;;14.80;99.90;;;;;;5016812;28;20182;-69
2023/09/08 01:15:05;;;;;;;2.73;1.50;;;15.00;99.90;;;;;;4999976;28;20185;-68
2023/09/08 01:17:36;;;;;;;2.87;1.50;;;14.90;99.90;;;;;;5016671;28;20182;-71
2023/09/08 01:20:07;;;;;;;3.90;1.70;;;15.00;99.90;;;;;;5017063;28;20176;-71
2023/09/08 01:23:07;;;;;;;1.83;1.10;;;15.10;99.90;;;;;;5017287;28;20213;-70
2023/09/08 01:25:41;;;;;;;2.97;1.20;;;15.20;99.90;;;;;;4962631;28;20193;-70
2023/09/08 01:28:08;;;;;;;2.40;1.23;;;15.90;99.90;;;;;;5017425;28;20181;-70
2023/09/08 01:30:37;;;;;;;2.70;1.60;;;16.40;99.90;;;;;;5017494;28;20265;-70
2023/09/08 01:33:04;;;;;;;3.07;1.00;;;16.20;99.90;;;;;;5017193;28;20174;-70
2023/09/08 01:35:32;;;;;;;3.47;1.47;;;16.00;99.90;;;;;;5017709;28;20268;-69
2023/09/08 01:38:00;;;;;;;1.77;0.97;;;16.20;99.90;;;;;;4991412;28;20541;-70
2023/09/08 01:40:27;;;;;;;4.43;1.00;;;16.40;99.90;;;;;;5016179;28;20244;-70
2023/09/08 01:42:54;;;;;;;2.23;1.13;;;16.30;99.90;;;;;;4999432;28;20244;-69
2023/09/08 01:45:22;;;;;;;0.83;0.60;;;16.10;99.90;;;;;;5033804;28;20193;-69
2023/09/08 01:47:49;;;;;;;1.20;0.70;;;16.30;99.90;;;;;;4999657;28;20189;-69
2023/09/08 01:50:24;;;;;;;1.40;0.80;;;16.60;99.90;;;;;;4997720;28;20315;-69
2023/09/08 01:52:52;;;;;;;1.40;0.57;;;16.60;99.90;;;;;;5016467;28;20197;-75
2023/09/08 01:55:20;;;;;;;1.33;0.87;;;16.60;99.90;;;;;;5019220;28;20178;-69
2023/09/08 01:57:47;;;;;;;2.17;0.80;;;16.10;99.90;;;;;;5016977;28;20225;-70
2023/09/08 02:00:15;;;;;;;1.27;0.80;;;15.80;99.90;;;;;;5017338;28;20273;-69
2023/09/08 02:02:42;;;;;;;1.83;0.80;;;15.80;99.90;;;;;;5015053;28;20299;-69
2023/09/08 02:05:10;;;;;;;2.07;1.00;;;15.60;99.90;;;;;;5014621;28;20174;-70
2023/09/08 02:07:37;;;;;;;3.37;1.77;;;15.60;99.90;;;;;;5014458;28;20224;-70
2023/09/08 02:10:05;;;;;;;3.30;1.40;;;15.60;99.90;;;;;;5014244;28;20185;-70
2023/09/08 02:12:32;;;;;;;4.83;1.50;;;15.40;99.90;;;;;;5013796;28;20201;-69
2023/09/08 02:14:59;;;;;;;2.17;1.07;;;15.40;99.90;;;;;;5014556;28;20202;-69
2023/09/08 02:17:27;;;;;;;6.60;1.50;;;15.30;99.90;;;;;;4996238;28;20203;-73
2023/09/08 02:19:54;;;;;;;3.93;1.33;;;15.30;99.90;;;;;;5011187;28;20178;-69
2023/09/08 02:22:21;;;;;;;1.67;1.37;;;15.30;99.90;;;;;;5013193;28;20261;-69
2023/09/08 02:24:49;;;;;;;2.40;1.50;;;15.20;99.90;;;;;;5013476;28;20673;-69
2023/09/08 02:27:16;;;;;;;1.57;0.97;;;15.30;99.90;;;;;;5012802;28;20200;-70
2023/09/08 02:29:43;;;;;;;1.90;0.90;;;15.40;99.90;;;;;;5013750;28;20654;-69
2023/09/08 02:32:10;;;;;;;2.93;1.17;;;15.30;99.90;;;;;;5014290;28;20570;-69
2023/09/08 02:34:38;;;;;;;2.30;0.90;;;15.30;99.90;;;;;;5013528;28;20236;-69
2023/09/08 02:37:05;;;;;;;2.63;1.00;;;15.30;99.90;;;;;;5013993;28;20188;-69
2023/09/08 02:39:34;;;;;;;2.87;0.90;;;15.30;99.90;;;;;;5014109;28;20181;-68
2023/09/08 02:42:01;;;;;;;2.00;0.80;;;15.40;99.90;;;;;;5013281;28;20221;-69
2023/09/08 02:44:29;;;;;;;2.57;0.97;;;15.50;99.90;;;;;;5013918;28;20200;-69
2023/09/08 02:46:56;;;;;;;1.50;0.83;;;15.70;99.90;;;;;;5013545;28;20222;-69
2023/09/08 02:49:23;;;;;;;3.60;1.10;;;15.90;99.90;;;;;;5013034;28;20186;-70
2023/09/08 02:51:51;;;;;;;2.40;1.20;;;15.90;99.90;;;;;;5013423;28;20671;-71
2023/09/08 02:54:18;;;;;;;5.40;1.07;;;16.10;99.90;;;;;;4996115;28;20640;-69
2023/09/08 02:56:45;;;;;;;3.43;1.10;;;16.30;99.90;;;;;;5012816;28;20193;-69
2023/09/08 02:59:12;;;;;;;2.47;1.27;;;16.50;99.90;;;;;;5013195;28;20229;-69
2023/09/08 03:01:40;;;;;;;3.47;1.70;;;17.00;99.90;;;;;;5013568;28;20189;-69
2023/09/08 03:04:08;;;;;;;2.77;1.97;;;17.30;99.90;;;;;;5012594;28;20263;-70
2023/09/08 03:06:36;;;;;;;3.87;1.30;;;17.60;99.90;;;;;;5012590;28;20181;-69
2023/09/08 03:09:03;;;;;;;1.83;1.00;;;18.60;99.90;;;;;;5012715;28;20596;-70
2023/09/08 03:11:30;;;;;;;1.27;0.73;;;19.00;99.90;;;;;;5012731;28;20243;-70
2023/09/08 03:13:57;;;;;;;1.83;0.60;;;18.70;99.90;;;;;;5012734;28;20190;-69
2023/09/08 03:16:25;;;;;;;3.37;0.80;;;18.60;99.90;;;;;;5012986;28;20675;-69
2023/09/08 03:18:52;;;;;;;0.60;0.40;;;19.10;99.90;;;;;;4994414;28;20632;-69
2023/09/08 03:21:19;;;;;;;1.63;0.60;;;19.70;99.90;;;;;;5012739;28;20283;-68
2023/09/08 03:27:09;;;;;;;2.17;0.57;;;20.40;97.90;;;;;;5012449;28;20265;-69
2023/09/08 03:29:36;;;;;;;1.33;0.50;;;20.80;93.00;;;;;;5012581;28;20174;-71
2023/09/08 03:32:04;;;;;;;1.57;0.40;;;20.90;68.30;;;;;;5012113;28;20189;-69
2023/09/08 03:34:31;;;;;;;4.00;0.50;;;21.10;58.00;;;;;;5012199;28;20205;-69
2023/09/08 03:36:59;;;;;;;1.57;0.50;;;21.00;44.00;;;;;;5012264;28;20232;-69
2023/09/08 03:39:26;;;;;;;0.57;0.40;;;21.10;41.30;;;;;;5010070;28;20190;-69
2023/09/08 03:45:15;;;;;;;0.40;0.40;;;21.30;38.10;;;;;;5010015;28;20252;-70
2023/09/08 03:47:42;;;;;;;0.73;0.40;;;20.90;28.40;;;;;;5012236;28;20572;-69
2023/09/08 03:50:10;;;;;;;4.80;0.80;;;20.60;28.30;;;;;;5012011;28;20185;-69
2023/09/08 03:52:37;;;;;;;3.30;0.53;;;20.70;28.40;;;;;;5012644;28;20174;-69
2023/09/08 03:55:05;;;;;;;2.10;0.70;;;20.90;29.80;;;;;;5012177;28;20273;-69
2023/09/08 03:57:33;;;;;;;3.53;0.60;;;20.70;25.10;;;;;;5012237;28;20670;-68
2023/09/08 04:00:00;;;;;;;1.03;0.50;;;20.70;27.40;;;;;;5012101;28;20240;-69
2023/09/08 04:02:27;;;;;;;0.53;0.47;;;20.60;22.60;;;;;;5011819;28;20667;-68
2023/09/08 04:04:54;;;;;;;0.80;0.63;;;20.70;24.00;;;;;;5012178;28;20178;-69
2023/09/08 04:07:22;;;;;;;0.53;0.40;;;20.80;23.40;;;;;;5012309;28;20705;-68
2023/09/08 04:09:49;;;;;;;1.50;0.60;;;20.70;19.40;;;;;;5011855;28;20174;-69
2023/09/08 04:12:16;;;;;;;0.70;0.40;;;20.60;19.10;;;;;;5011666;28;20276;-69
2023/09/08 04:14:44;;;;;;;2.30;0.57;;;20.50;17.60;;;;;;5012231;28;20182;-69
2023/09/08 04:17:11;;;;;;;1.30;0.53;;;20.50;18.30;;;;;;5011817;28;20183;-68
2023/09/08 04:19:38;;;;;;;1.77;0.50;;;20.70;18.50;;;;;;4994557;28;20246;-69
2023/09/08 04:22:06;;;;;;;0.83;0.63;;;20.50;17.30;;;;;;5011856;28;20228;-68
2023/09/08 04:24:37;;;;;;;1.63;0.60;;;20.50;16.20;;;;;;5011174;28;20182;-69
2023/09/08 04:27:04;;;;;;;4.73;0.70;;;20.60;15.50;;;;;;5012795;28;20186;-68
2023/09/08 04:29:32;;;;;;;0.40;0.40;;;20.70;15.90;;;;;;5012971;28;20538;-71
2023/09/08 04:32:00;;;;;;;0.50;0.40;;;20.80;16.40;;;;;;5006253;28;20181;-69
2023/09/08 04:34:27;;;;;;;4.17;0.70;;;20.80;14.20;;;;;;4996950;28;20178;-69
2023/09/08 04:36:55;;;;;;;0.93;0.47;;;20.60;13.40;;;;;;4993773;28;20277;-71
2023/09/08 04:39:22;;;;;;;0.93;0.40;;;20.40;10.70;;;;;;5010373;28;20187;-69
2023/09/08 04:41:49;;;;;;;1.53;0.47;;;20.60;13.70;;;;;;5000455;28;20202;-70
2023/09/08 04:44:17;;;;;;;0.60;0.40;;;20.60;10.50;;;;;;5011289;28;20195;-70
2023/09/08 04:46:44;;;;;;;0.47;0.43;;;20.50;10.40;;;;;;5020584;28;20579;-72
2023/09/08 04:49:11;;;;;;;0.67;0.50;;;20.50;8.30;;;;;;5031141;28;20181;-71
2023/09/08 04:51:39;;;;;;;1.50;0.87;;;20.20;8.50;;;;;;5031597;28;20254;-69
2023/09/08 04:54:06;;;;;;;4.13;0.50;;;20.20;8.90;;;;;;5031626;28;20192;-69
2023/09/08 04:56:33;;;;;;;1.07;0.60;;;19.90;9.20;;;;;;5030925;28;20177;-71
2023/09/08 04:59:01;;;;;;;0.30;0.30;;;20.00;9.70;;;;;;5014133;28;20690;-68
2023/09/08 05:01:29;;;;;;;0.67;0.40;;;20.00;11.00;;;;;;5011753;28;20583;-69
2023/09/08 05:03:57;;;;;;;5.30;0.50;;;19.80;9.70;;;;;;5011310;28;20211;-69
2023/09/08 05:06:24;;;;;;;0.40;0.40;;;19.80;10.10;;;;;;5011211;28;20177;-71
2023/09/08 05:08:52;;;;;;;1.27;0.40;;;19.80;12.00;;;;;;5010767;28;20186;-69
2023/09/08 05:11:19;;;;;;;0.50;0.40;;;19.80;10.70;;;;;;5010314;28;20304;-70
2023/09/08 05:13:49;;;;;;;0.90;0.40;;;19.70;10.10;;;;;;5011372;28;20636;-69
2023/09/08 05:16:18;;;;;;;3.00;0.60;;;19.70;11.50;;;;;;4994063;28;20189;-70
2023/09/08 05:18:46;;;;;;;1.43;0.33;;;19.60;11.60;;;;;;5010965;28;20177;-70
2023/09/08 05:21:14;;;;;;;1.10;0.60;;;19.60;13.30;;;;;;5010314;28;20269;-70
2023/09/08 05:23:41;;;;;;;1.40;0.37;;;19.40;13.60;;;;;;5011381;28;20212;-69
2023/09/08 05:26:08;;;;;;;1.30;0.50;;;19.30;15.50;;;;;;5010468;28;20186;-71
2023/09/08 05:28:35;;;;;;;1.73;0.70;;;19.30;15.50;;;;;;5011393;28;20186;-71
2023/09/08 05:31:04;;;;;;;5.13;0.80;;;19.30;15.20;;;;;;5011569;28;20186;-68
2023/09/08 05:33:31;;;;;;;1.57;0.50;;;19.20;16.20;;;;;;5010946;28;20182;-70
2023/09/08 05:35:58;;;;;;;0.90;0.40;;;19.10;16.80;;;;;;5010865;28;20214;-70
2023/09/08 05:38:27;;;;;;;0.83;0.50;;;19.10;16.90;;;;;;5014530;28;20292;-70
2023/09/08 05:40:55;;;;;;;0.60;0.40;;;19.40;19.20;;;;;;5014129;28;20212;-68
2023/09/08 05:43:23;;;;;;;6.90;0.50;;;19.30;18.20;;;;;;4997465;28;20249;-70
2023/09/08 05:45:51;;;;;;;0.80;0.60;;;19.40;18.70;;;;;;5014309;28;20212;-70
2023/09/08 05:48:18;;;;;;;3.77;1.00;;;19.30;20.30;;;;;;5014078;28;20232;-69
2023/09/08 05:50:45;;;;;;;0.67;0.40;;;19.40;19.90;;;;;;4997179;28;20186;-70
2023/09/08 05:53:13;;;;;;;2.20;0.60;;;19.20;20.50;;;;;;5014755;28;20182;-70
2023/09/08 05:55:40;;;;;;;0.67;0.50;;;19.00;20.20;;;;;;5014152;28;20178;-69
2023/09/08 05:58:08;;;;;;;0.53;0.40;;;18.90;19.80;;;;;;4997105;28;20316;-69
2023/09/08 06:00:35;;;;;;;1.60;0.67;;;19.10;20.60;;;;;;5014778;28;20166;-70
2023/09/08 06:03:03;;;;;;;1.20;0.40;;;19.20;22.90;;;;;;5013772;28;20264;-69
2023/09/08 06:05:30;;;;;;;1.10;0.50;;;19.30;21.80;;;;;;5014524;28;20232;-70
2023/09/08 06:07:57;;;;;;;2.97;0.60;;;19.20;22.70;;;;;;5020191;28;20618;-70
2023/09/08 06:10:25;;;;;;;0.40;0.40;;;19.00;22.60;;;;;;5033805;28;20172;-69
2023/09/08 06:12:52;;;;;;;1.77;0.60;;;18.80;22.70;;;;;;5034335;28;20212;-71
2023/09/08 06:15:24;;;;;;;0.70;0.40;;;18.90;24.10;;;;;;5034019;28;20186;-71
2023/09/08 06:17:51;;;;;;;0.70;0.50;;;19.10;25.20;;;;;;4997572;28;20556;-70
2023/09/08 06:20:18;;;;;;;0.53;0.50;;;19.30;25.40;;;;;;5015378;28;20547;-69
2023/09/08 06:22:46;;;;;;;1.53;0.60;;;19.30;27.20;;;;;;5015314;28;20221;-70
2023/09/08 06:25:13;;;;;;;0.47;0.40;;;19.30;26.80;;;;;;5015289;28;20221;-69
2023/09/08 06:27:40;;;;;;;1.27;0.40;;;19.10;28.40;;;;;;5015108;28;20562;-68
2023/09/08 06:30:08;;;;;;;1.33;0.40;;;18.90;30.60;;;;;;5015236;28;20260;-68
2023/09/08 06:32:36;;;;;;;0.40;0.40;;;18.90;33.30;;;;;;5015416;28;20244;-69
2023/09/08 06:35:03;;;;;;;0.73;0.40;;;18.80;34.60;;;;;;5015222;28;20191;-69
2023/09/08 06:37:35;;;;;;;2.33;0.47;;;18.70;36.90;;;;;;5015330;28;20520;-69
2023/09/08 06:40:02;;;;;;;0.63;0.40;;;18.50;39.60;;;;;;5014793;28;20182;-69
2023/09/08 06:42:29;;;;;;;0.30;0.30;;;18.00;39.50;;;;;;5014884;28;20224;-68
2023/09/08 06:44:57;;;;;;;0.40;0.40;;;17.80;42.50;;;;;;5014484;28;20186;-69
2023/09/08 06:47:24;;;;;;;1.70;0.40;;;17.70;45.50;;;;;;4992518;28;20215;-69
2023/09/08 06:49:51;;;;;;;0.63;0.40;;;17.70;50.40;;;;;;5012003;28;20260;-69
2023/09/08 06:52:19;;;;;;;0.40;0.40;;;17.50;52.40;;;;;;5013205;28;20186;-70
2023/09/08 06:54:46;;;;;;;0.60;0.30;;;17.30;51.50;;;;;;5012678;28;20313;-69
2023/09/08 06:57:14;;;;;;;0.47;0.47;;;17.20;53.20;;;;;;5013546;28;20182;-70
2023/09/08 06:59:42;;;;;;;1.23;0.30;;;17.10;57.10;;;;;;5012953;28;20319;-69
2023/09/08 07:02:10;;;;;;;0.40;0.40;;;17.10;59.70;;;;;;5013333;28;20202;-71
2023/09/08 07:04:37;;;;;;;2.73;0.40;;;16.90;62.50;;;;;;5013478;28;20186;-70
2023/09/08 07:07:07;;;;;;;0.60;0.30;;;16.70;65.70;;;;;;5013782;28;20201;-70
2023/09/08 07:09:38;;;;;;;0.30;0.30;;;16.50;69.60;;;;;;5011984;28;20697;-70
2023/09/08 07:12:06;;;;;;;0.30;0.30;;;16.50;73.00;;;;;;4996031;28;20188;-69
2023/09/08 07:14:34;;;;;;;2.43;0.30;;;16.30;79.50;;;;;;5013384;28;20814;-70
2023/09/08 07:17:01;;;;;;;0.83;0.50;;;16.10;83.30;;;;;;5013040;28;20192;-69
2023/09/08 07:19:29;;;;;;;1.23;0.40;;;15.90;90.30;;;;;;5012566;28;20189;-68
2023/09/08 07:21:57;;;;;;;2.93;0.30;;;15.80;92.60;;;;;;4993726;28;20185;-69
2023/09/08 07:24:24;;;;;;;0.40;0.40;;;15.80;92.00;;;;;;4993069;28;20171;-69
2023/09/08 07:26:52;;;;;;;0.70;0.60;;;15.60;93.90;;;;;;4993508;28;20617;-70
2023/09/08 07:29:20;;;;;;;0.30;0.30;;;15.60;94.60;;;;;;5004166;28;20192;-71
2023/09/08 07:31:48;;;;;;;0.53;0.50;;;15.50;96.80;;;;;;4994662;28;20597;-71
2023/09/08 07:34:15;;;;;;;0.40;0.40;;;15.30;99.90;;;;;;4995596;28;20250;-69
2023/09/08 07:36:43;;;;;;;0.40;0.40;;;15.20;99.90;;;;;;5012626;28;20193;-68
2023/09/08 07:39:11;;;;;;;0.40;0.40;;;15.10;99.90;;;;;;5012528;28;20295;-69
2023/09/08 07:41:40;;;;;;;0.40;0.40;;;14.90;99.90;;;;;;5012480;28;20288;-69
2023/09/08 07:44:08;;;;;;;1.10;0.43;;;14.90;99.90;;;;;;5012852;28;20250;-69
2023/09/08 07:46:36;;;;;;;0.60;0.40;;;14.90;99.90;;;;;;5012105;28;20185;-68
2023/09/08 07:49:03;;;;;;;0.60;0.57;;;14.80;99.90;;;;;;5012854;28;20250;-69
2023/09/08 07:51:31;;;;;;;2.13;1.03;;;14.60;99.90;;;;;;5012774;28;20305;-69
2023/09/08 07:53:59;;;;;;;1.83;0.60;;;14.50;99.90;;;;;;5012460;28;20256;-70
2023/09/08 07:56:27;;;;;;;2.03;0.53;;;14.40;99.90;;;;;;5012628;28;20187;-70
2023/09/08 07:58:54;;;;;;;3.20;0.87;;;14.30;99.90;;;;;;5012482;28;20729;-70
2023/09/08 08:01:22;;;;;;;2.20;0.40;;;14.30;99.90;;;;;;5011529;28;20262;-69
2023/09/08 08:03:49;;;;;;;0.40;0.37;;;14.30;99.90;;;;;;5012689;28;20214;-70
2023/09/08 08:06:19;;;;;;;0.40;0.40;;;14.20;99.90;;;;;;5012277;28;20212;-70
2023/09/08 08:08:46;;;;;;;0.60;0.50;;;14.30;99.90;;;;;;5013538;28;20188;-70
2023/09/08 08:11:16;;;;;;;0.67;0.47;;;14.20;99.90;;;;;;4995717;28;20562;-69
2023/09/08 08:13:44;;;;;;;2.30;0.40;;;14.10;99.90;;;;;;5017864;28;20333;-69
2023/09/08 08:16:12;;;;;;;0.87;0.50;;;14.20;99.90;;;;;;5013766;28;20604;-69
2023/09/08 08:18:40;;;;;;;0.50;0.50;;;14.20;99.90;;;;;;5013887;28;20180;-69
2023/09/08 08:21:08;;;;;;;0.40;0.40;;;14.10;99.90;;;;;;5013602;28;20213;-69
2023/09/08 08:23:38;;;;;;;0.50;0.50;;;14.00;99.90;;;;;;4992606;28;20217;-69
2023/09/08 08:26:06;;;;;;;0.50;0.40;;;14.10;99.90;;;;;;5011340;28;20531;-69
2023/09/08 08:28:34;;;;;;;0.50;0.40;;;14.10;99.90;;;;;;5011688;28;20634;-69
2023/09/08 08:31:03;;;;;;;0.40;0.40;;;14.00;99.90;;;;;;5011312;28;20338;-68
2023/09/08 08:33:30;;;;;;;0.50;0.50;;;13.90;99.90;;;;;;5011542;28;20698;-69
2023/09/08 08:35:58;;;;;;;0.60;0.40;;;13.80;99.90;;;;;;5011506;28;20524;-70
2023/09/08 08:38:26;;;;;;;0.83;0.53;;;13.80;99.90;;;;;;5011231;28;20631;-69
2023/09/08 08:40:53;;;;;;;0.67;0.50;;;13.80;99.90;;;;;;5003598;28;20320;-69
2023/09/08 08:43:23;;;;;;;1.30;0.50;;;13.70;99.90;;;;;;5011281;28;20439;-69
2023/09/08 08:45:52;;;;;;;1.67;0.60;;;13.50;99.90;;;;;;5011693;28;20188;-69
2023/09/08 08:48:22;;;;;;;0.77;0.70;;;13.50;99.90;;;;;;5009621;28;20185;-69
2023/09/08 08:50:51;;;;;;;1.83;0.80;;;13.50;99.90;;;;;;4986901;28;20674;-69
2023/09/08 08:53:21;;;;;;;0.67;0.57;;;13.50;99.90;;;;;;5011310;28;20199;-70
2023/09/08 08:55:52;;;;;;;1.30;0.63;;;13.50;99.90;;;;;;5011476;28;20196;-71
2023/09/08 08:58:24;;;;;;;1.43;0.60;;;13.40;99.90;;;;;;5011242;28;20233;-70
2023/09/08 09:00:56;;;;;;;3.80;1.27;;;13.40;99.90;;;;;;5011248;28;20185;-69
2023/09/08 09:03:27;;;;;;;0.73;0.60;;;13.40;99.90;;;;;;5000840;28;20225;-71
2023/09/08 09:05:56;;;;;;;2.43;0.70;;;13.30;99.90;;;;;;5011439;28;20648;-71
2023/09/08 09:08:24;;;;;;;1.10;0.70;;;13.40;99.90;;;;;;5011256;28;20227;-67
2023/09/08 09:10:52;;;;;;;1.00;0.53;;;13.40;99.90;;;;;;5011910;28;20196;-68
2023/09/08 09:13:21;;;;;;;1.40;0.70;;;13.30;99.90;;;;;;5016461;28;20665;-67
2023/09/08 09:15:51;;;;;;;0.53;0.53;;;13.30;99.90;;;;;;5019283;28;20683;-69
2023/09/08 09:18:18;;;;;;;0.87;0.80;;;13.20;99.90;;;;;;5023946;28;20639;-67
2023/09/08 09:20:58;;;;;;;0.67;0.67;;;13.20;99.90;;;;;;5016499;28;20189;-66
2023/09/08 09:23:33;;;;;;;2.67;0.70;;;13.20;99.90;;;;;;5016613;28;20275;-65
2023/09/08 09:26:06;;;;;;;1.10;0.70;;;13.10;99.90;;;;;;5016530;28;20179;-66
2023/09/08 09:28:34;;;;;;;4.30;1.17;;;13.20;99.90;;;;;;5016593;28;20178;-66
2023/09/08 09:31:02;;;;;;;1.10;0.70;;;13.20;99.90;;;;;;5016750;28;20263;-66
2023/09/08 09:33:31;;;;;;;1.47;0.70;;;13.10;99.90;;;;;;4999079;28;20669;-66
2023/09/08 09:35:59;;;;;;;1.60;0.80;;;13.10;99.90;;;;;;5016544;28;20260;-65
2023/09/08 09:38:28;;;;;;;1.27;0.73;;;13.10;99.90;;;;;;5016575;28;20181;-66
2023/09/08 09:40:58;;;;;;;2.90;0.90;;;13.00;99.90;;;;;;5016565;28;20503;-68
2023/09/08 09:43:27;;;;;;;1.67;0.70;;;13.00;99.90;;;;;;5016451;28;20244;-66
2023/09/08 09:45:55;;;;;;;2.23;0.80;;;13.00;99.90;;;;;;5016236;28;20605;-66
2023/09/08 09:48:23;;;;;;;1.23;0.80;;;13.00;99.90;;;;;;5016480;28;20192;-67
2023/09/08 09:50:51;;;;;;;1.57;1.00;;;13.00;99.90;;;;;;5016394;28;20639;-67
2023/09/08 09:53:20;;;;;;;1.00;0.80;;;12.90;99.90;;;;;;5016417;28;20540;-67
2023/09/08 09:55:48;;;;;;;1.07;0.80;;;12.80;99.90;;;;;;5016430;28;20260;-66
2023/09/08 09:58:16;;;;;;;2.60;0.80;;;12.90;99.90;;;;;;5016066;28;20228;-67
2023/09/08 10:00:47;;;;;;;1.40;0.87;;;13.10;99.90;;;;;;4998357;28;20545;-66
2023/09/08 10:03:15;;;;;;;4.50;1.30;;;13.30;99.90;;;;;;5016098;28;20209;-66
2023/09/08 10:05:43;;;;;;;2.80;0.90;;;13.20;99.90;;;;;;5016051;28;20658;-66
2023/09/08 10:08:11;;;;;;;1.83;0.90;;;13.20;99.90;;;;;;5016171;28;20181;-66
2023/09/08 10:10:41;;;;;;;1.37;0.70;;;13.10;99.90;;;;;;5016072;28;20178;-67
2023/09/08 10:13:12;;;;;;;2.17;0.80;;;13.00;99.90;;;;;;5016112;28;20196;-67
2023/09/08 10:15:41;;;;;;;1.77;0.90;;;13.00;99.90;;;;;;5016054;28;20193;-66
2023/09/08 10:18:11;;;;;;;3.50;1.00;;;12.90;99.90;;;;;;5015754;28;20649;-66
2023/09/08 10:20:41;;;;;;;2.17;1.13;;;12.80;99.90;;;;;;5015800;28;20173;-67
2023/09/08 10:23:32;;;;;;;5.07;1.17;;;12.70;99.90;;;;;;5014552;28;20209;-68
2023/09/08 10:26:04;;;;;;;3.00;1.70;;;12.60;99.90;;;;;;4998493;28;20185;-68
2023/09/08 10:28:33;;;;;;;3.43;1.40;;;12.60;99.90;;;;;;4997995;28;20557;-66
2023/09/08 10:31:02;;;;;;;4.20;1.90;;;12.50;99.90;;;;;;4998005;28;20192;-67
2023/09/08 10:33:32;;;;;;;3.80;2.00;;;12.30;99.90;;;;;;5015261;28;20258;-67
2023/09/08 10:36:03;;;;;;;3.73;2.10;;;12.10;99.90;;;;;;5015461;28;20581;-67
2023/09/08 10:38:34;;;;;;;4.70;1.93;;;12.10;99.90;;;;;;5015642;28;20572;-67
2023/09/08 10:41:21;;;;;;;3.33;1.37;;;12.20;99.90;;;;;;5015624;28;20182;-67
2023/09/08 10:44:18;;;;;;;9.17;1.83;;;12.10;99.90;;;;;;4997683;28;20641;-67
2023/09/08 10:46:46;;;;;;;3.90;1.63;;;12.10;99.90;;;;;;4995540;28;20223;-67
2023/09/08 10:49:14;;;;;;;2.33;1.00;;;12.20;99.90;;;;;;5015363;28;20181;-67
2023/09/08 10:51:44;;;;;;;2.20;1.03;;;12.20;99.90;;;;;;5015338;28;20195;-67
2023/09/08 10:54:12;;;;;;;1.50;0.90;;;12.20;99.90;;;;;;5015313;28;20187;-67
2023/09/08 10:56:56;;;;;;;2.83;1.17;;;12.20;99.90;;;;;;5015436;28;20231;-67
2023/09/08 10:59:29;;;;;;;3.50;1.23;;;12.20;99.90;;;;;;5015057;28;20228;-67
2023/09/08 11:02:01;;;;;;;3.70;1.23;;;12.10;99.90;;;;;;5015082;28;20656;-67
2023/09/08 11:04:33;;;;;;;2.60;1.13;;;12.10;99.90;;;;;;5015107;28;20558;-67
2023/09/08 11:07:02;;;;;;;2.47;1.30;;;12.10;99.90;;;;;;5015298;28;20181;-67
2023/09/08 11:09:35;;;;;;;4.13;0.97;;;12.10;99.90;;;;;;5015138;28;20586;-67
2023/09/08 11:12:08;;;;;;;2.97;1.20;;;12.10;99.90;;;;;;5015039;28;20537;-66
2023/09/08 11:14:36;;;;;;;3.43;1.13;;;12.10;99.90;;;;;;5015046;28;20177;-66
2023/09/08 11:17:04;;;;;;;4.00;1.10;;;12.10;99.90;;;;;;5014968;28;20203;-67
2023/09/08 11:19:48;;;;;;;4.10;1.13;;;12.00;99.90;;;;;;5014861;28;20180;-66
2023/09/08 11:22:18;;;;;;;1.83;1.07;;;12.00;99.90;;;;;;5014664;28;20208;-68
2023/09/08 11:24:46;;;;;;;3.40;1.50;;;12.00;99.90;;;;;;5015190;28;20228;-67
2023/09/08 11:27:14;;;;;;;4.80;1.47;;;11.90;99.90;;;;;;5014625;28;20573;-67
2023/09/08 11:29:43;;;;;;;4.33;1.40;;;11.90;99.90;;;;;;5014536;28;20657;-66
2023/09/08 11:32:12;;;;;;;8.37;1.60;;;11.90;99.90;;;;;;5014970;28;20627;-67
2023/09/08 11:34:42;;;;;;;2.87;1.23;;;11.90;99.90;;;;;;5013888;28;20192;-67
2023/09/08 11:37:17;;;;;;;5.83;1.53;;;11.90;99.90;;;;;;5014042;28;20192;-66
2023/09/08 11:39:46;;;;;;;4.00;1.17;;;11.90;99.90;;;;;;5014377;28;20266;-66
2023/09/08 11:42:16;;;;;;;5.67;1.40;;;11.90;99.90;;;;;;5014327;28;20185;-67
2023/09/08 11:44:44;;;;;;;5.63;1.20;;;11.90;99.90;;;;;;5014444;28;20543;-67
2023/09/08 11:47:13;;;;;;;5.87;1.10;;;11.90;99.90;;;;;;5014264;28;20182;-67
2023/09/08 11:49:44;;;;;;;4.47;1.10;;;11.90;99.90;;;;;;5014281;28;20191;-68
2023/09/08 11:52:13;;;;;;;4.07;1.20;;;11.80;99.90;;;;;;5014363;28;20276;-67
2023/09/08 11:54:41;;;;;;;3.77;1.13;;;11.70;99.90;;;;;;5014302;28;20208;-67
2023/09/08 11:57:11;;;;;;;2.37;1.20;;;11.60;99.90;;;;;;5014361;28;20177;-67
2023/09/08 11:59:39;;;;;;;5.07;1.40;;;11.60;99.90;;;;;;5014068;28;20289;-66
2023/09/08 12:02:08;;;;;;;3.40;1.20;;;11.50;99.90;;;;;;5014022;28;20220;-66
2023/09/08 12:04:37;;;;;;;4.17;1.30;;;11.50;99.90;;;;;;5014055;28;20254;-67
2023/09/08 12:07:04;;;;;;;4.43;1.03;;;11.50;99.90;;;;;;5013852;28;20176;-69
2023/09/08 12:09:32;;;;;;;3.43;1.10;;;11.60;99.90;;;;;;4996398;28;20224;-66
2023/09/08 12:12:03;;;;;;;5.23;1.57;;;11.70;99.90;;;;;;5014007;28;20250;-68
2023/09/08 12:14:40;;;;;;;1.93;1.00;;;11.70;99.90;;;;;;5013964;28;20185;-67
2023/09/08 12:17:08;;;;;;;3.47;1.30;;;11.70;99.90;;;;;;4996188;28;20212;-67
2023/09/08 12:19:39;;;;;;;2.03;0.87;;;11.70;99.90;;;;;;5013561;28;20188;-66
2023/09/08 12:22:11;;;;;;;6.27;1.83;;;11.60;99.90;;;;;;5013855;28;20206;-66
2023/09/08 12:25:11;;;;;;;2.43;1.40;;;11.70;99.90;;;;;;5013611;28;20654;-68
2023/09/08 12:27:38;;;;;;;3.33;1.27;;;11.80;99.90;;;;;;4960993;28;20216;-67
2023/09/08 12:30:16;;;;;;;2.40;1.10;;;11.80;99.90;;;;;;4996713;28;20222;-66
2023/09/08 12:32:51;;;;;;;5.80;1.03;;;11.70;99.90;;;;;;5013685;28;20176;-66
2023/09/08 12:35:23;;;;;;;6.13;1.20;;;11.70;99.90;;;;;;5013654;28;20273;-66
2023/09/08 12:38:07;;;;;;;4.77;1.10;;;11.60;99.90;;;;;;5013581;28;20184;-67
2023/09/08 12:40:39;;;;;;;3.17;1.07;;;11.60;99.90;;;;;;5013491;28;20276;-66
2023/09/08 12:43:07;;;;;;;3.40;1.00;;;11.40;99.90;;;;;;5013356;28;20223;-67
2023/09/08 12:45:35;;;;;;;6.83;1.30;;;11.40;99.90;;;;;;5012980;28;20622;-67
2023/09/08 12:48:03;;;;;;;4.80;1.10;;;11.30;99.90;;;;;;5013154;28;20188;-66
2023/09/08 12:50:32;;;;;;;3.17;1.30;;;11.30;99.90;;;;;;5013312;28;20271;-66
2023/09/08 12:53:00;;;;;;;2.50;1.20;;;11.30;99.90;;;;;;5013423;28;20612;-66
2023/09/08 12:55:27;;;;;;;3.60;1.00;;;11.30;99.90;;;;;;5013562;28;20271;-66
2023/09/08 12:57:57;;;;;;;3.33;1.57;;;11.20;99.90;;;;;;5013224;28;20241;-67
2023/09/08 13:00:25;;;;;;;4.53;1.03;;;11.20;99.90;;;;;;4995778;28;20612;-69
2023/09/08 13:02:52;;;;;;;2.63;1.13;;;11.10;99.90;;;;;;5010433;28;20227;-69